sensor_id;sensor_type;location;lat;lon;timestamp;P1;durP1;ratioP1;P2;durP2;ratioP2
32445;SDS011;18899;50.748;7.102;2022-07-17T00:00:12;9.60;;;2.53;;
32445;SDS011;18899;50.748;7.102;2022-07-17T00:02:39;5.32;;;2.33;;
32445;SDS011;18899;50.748;7.102;2022-07-17T00:05:04;7.38;;;2.13;;
32445;SDS011;18899;50.748;7.102;2022-07-17T00:07:30;7.97;;;2.10;;
32445;SDS011;18899;50.748;7.102;2022-07-17T00:09:56;6.35;;;2.30;;
32445;SDS011;18899;50.748;7.102;2022-07-17T00:12:22;5.93;;;2.05;;
32445;SDS011;18899;50.748;7.102;2022-07-17T00:14:47;4.53;;;2.20;;
32445;SDS011;18899;50.748;7.102;2022-07-17T00:17:13;5.63;;;1.88;;
32445;SDS011;18899;50.748;7.102;2022-07-17T00:19:39;5.80;;;2.00;;
32445;SDS011;18899;50.748;7.102;2022-07-17T00:22:05;4.57;;;1.70;;
32445;SDS011;18899;50.748;7.102;2022-07-17T00:24:30;8.98;;;1.98;;
32445;SDS011;18899;50.748;7.102;2022-07-17T00:26:56;5.10;;;1.80;;
32445;SDS011;18899;50.748;7.102;2022-07-17T00:29:21;4.43;;;1.70;;
32445;SDS011;18899;50.748;7.102;2022-07-17T00:31:47;8.25;;;2.00;;
32445;SDS011;18899;50.748;7.102;2022-07-17T00:34:13;5.40;;;1.80;;
32445;SDS011;18899;50.748;7.102;2022-07-17T00:36:38;5.45;;;1.63;;
32445;SDS011;18899;50.748;7.102;2022-07-17T00:39:04;2.40;;;1.38;;
32445;SDS011;18899;50.748;7.102;2022-07-17T00:41:30;5.03;;;1.80;;
32445;SDS011;18899;50.748;7.102;2022-07-17T00:44:02;10.80;;;1.98;;
32445;SDS011;18899;50.748;7.102;2022-07-17T00:46:29;3.45;;;1.70;;
32445;SDS011;18899;50.748;7.102;2022-07-17T00:48:54;9.40;;;2.10;;
32445;SDS011;18899;50.748;7.102;2022-07-17T00:51:20;6.00;;;1.73;;
32445;SDS011;18899;50.748;7.102;2022-07-17T00:53:45;9.38;;;2.00;;
32445;SDS011;18899;50.748;7.102;2022-07-17T00:56:13;14.48;;;2.17;;
32445;SDS011;18899;50.748;7.102;2022-07-17T00:58:41;7.20;;;1.85;;
32445;SDS011;18899;50.748;7.102;2022-07-17T01:01:08;4.75;;;1.52;;
32445;SDS011;18899;50.748;7.102;2022-07-17T01:03:34;5.47;;;1.67;;
32445;SDS011;18899;50.748;7.102;2022-07-17T01:06:00;5.20;;;2.10;;
32445;SDS011;18899;50.748;7.102;2022-07-17T01:08:26;4.55;;;1.88;;
32445;SDS011;18899;50.748;7.102;2022-07-17T01:10:52;5.20;;;1.85;;
32445;SDS011;18899;50.748;7.102;2022-07-17T01:13:18;5.78;;;1.95;;
32445;SDS011;18899;50.748;7.102;2022-07-17T01:15:43;4.80;;;1.80;;
32445;SDS011;18899;50.748;7.102;2022-07-17T01:18:10;6.10;;;1.50;;
32445;SDS011;18899;50.748;7.102;2022-07-17T01:20:38;7.00;;;1.52;;
32445;SDS011;18899;50.748;7.102;2022-07-17T01:23:05;11.18;;;1.90;;
32445;SDS011;18899;50.748;7.102;2022-07-17T01:25:32;7.63;;;1.75;;
32445;SDS011;18899;50.748;7.102;2022-07-17T01:27:58;12.68;;;1.80;;
32445;SDS011;18899;50.748;7.102;2022-07-17T01:30:24;3.85;;;1.55;;
32445;SDS011;18899;50.748;7.102;2022-07-17T01:32:49;3.83;;;1.38;;
32445;SDS011;18899;50.748;7.102;2022-07-17T01:35:15;6.90;;;1.70;;
32445;SDS011;18899;50.748;7.102;2022-07-17T01:37:41;3.42;;;1.50;;
32445;SDS011;18899;50.748;7.102;2022-07-17T01:40:08;6.63;;;1.65;;
32445;SDS011;18899;50.748;7.102;2022-07-17T01:42:38;3.30;;;1.50;;
32445;SDS011;18899;50.748;7.102;2022-07-17T01:45:05;4.85;;;1.52;;
32445;SDS011;18899;50.748;7.102;2022-07-17T01:47:31;8.57;;;1.33;;
32445;SDS011;18899;50.748;7.102;2022-07-17T01:49:57;6.93;;;1.42;;
32445;SDS011;18899;50.748;7.102;2022-07-17T01:52:23;9.32;;;1.70;;
32445;SDS011;18899;50.748;7.102;2022-07-17T01:54:50;6.93;;;1.45;;
32445;SDS011;18899;50.748;7.102;2022-07-17T01:57:16;5.10;;;1.70;;
32445;SDS011;18899;50.748;7.102;2022-07-17T01:59:42;7.75;;;1.65;;
32445;SDS011;18899;50.748;7.102;2022-07-17T02:02:07;3.50;;;1.45;;
32445;SDS011;18899;50.748;7.102;2022-07-17T02:04:34;3.08;;;1.77;;
32445;SDS011;18899;50.748;7.102;2022-07-17T02:07:01;4.88;;;1.70;;
32445;SDS011;18899;50.748;7.102;2022-07-17T02:09:27;13.63;;;1.83;;
32445;SDS011;18899;50.748;7.102;2022-07-17T02:11:52;5.82;;;1.45;;
32445;SDS011;18899;50.748;7.102;2022-07-17T02:14:18;21.88;;;1.85;;
32445;SDS011;18899;50.748;7.102;2022-07-17T02:16:44;4.30;;;1.58;;
32445;SDS011;18899;50.748;7.102;2022-07-17T02:19:10;5.03;;;1.60;;
32445;SDS011;18899;50.748;7.102;2022-07-17T02:21:36;9.93;;;2.08;;
32445;SDS011;18899;50.748;7.102;2022-07-17T02:24:02;4.30;;;1.80;;
32445;SDS011;18899;50.748;7.102;2022-07-17T02:26:27;8.63;;;2.25;;
32445;SDS011;18899;50.748;7.102;2022-07-17T02:28:53;4.28;;;1.98;;
32445;SDS011;18899;50.748;7.102;2022-07-17T02:31:19;7.40;;;2.20;;
32445;SDS011;18899;50.748;7.102;2022-07-17T02:33:45;5.45;;;2.05;;
32445;SDS011;18899;50.748;7.102;2022-07-17T02:36:10;8.48;;;2.42;;
32445;SDS011;18899;50.748;7.102;2022-07-17T02:38:36;6.00;;;1.90;;
32445;SDS011;18899;50.748;7.102;2022-07-17T02:41:01;9.48;;;2.30;;
32445;SDS011;18899;50.748;7.102;2022-07-17T02:43:27;6.28;;;2.45;;
32445;SDS011;18899;50.748;7.102;2022-07-17T02:45:52;9.38;;;2.22;;
32445;SDS011;18899;50.748;7.102;2022-07-17T02:48:18;8.15;;;2.28;;
32445;SDS011;18899;50.748;7.102;2022-07-17T02:50:43;7.30;;;2.30;;
32445;SDS011;18899;50.748;7.102;2022-07-17T02:53:09;7.68;;;2.90;;
32445;SDS011;18899;50.748;7.102;2022-07-17T02:55:34;8.60;;;2.30;;
32445;SDS011;18899;50.748;7.102;2022-07-17T02:58:00;3.97;;;2.10;;
32445;SDS011;18899;50.748;7.102;2022-07-17T03:00:26;6.80;;;2.60;;
32445;SDS011;18899;50.748;7.102;2022-07-17T03:02:52;8.90;;;2.55;;
32445;SDS011;18899;50.748;7.102;2022-07-17T03:05:18;10.60;;;2.20;;
32445;SDS011;18899;50.748;7.102;2022-07-17T03:07:44;8.35;;;2.75;;
32445;SDS011;18899;50.748;7.102;2022-07-17T03:10:10;3.50;;;2.20;;
32445;SDS011;18899;50.748;7.102;2022-07-17T03:12:36;10.52;;;2.33;;
32445;SDS011;18899;50.748;7.102;2022-07-17T03:15:01;8.07;;;2.33;;
32445;SDS011;18899;50.748;7.102;2022-07-17T03:17:28;4.15;;;2.05;;
32445;SDS011;18899;50.748;7.102;2022-07-17T03:19:53;5.03;;;2.70;;
32445;SDS011;18899;50.748;7.102;2022-07-17T03:22:19;5.18;;;2.20;;
32445;SDS011;18899;50.748;7.102;2022-07-17T03:24:44;7.97;;;1.95;;
32445;SDS011;18899;50.748;7.102;2022-07-17T03:27:10;5.72;;;2.05;;
32445;SDS011;18899;50.748;7.102;2022-07-17T03:29:35;9.60;;;2.35;;
32445;SDS011;18899;50.748;7.102;2022-07-17T03:32:01;5.35;;;1.73;;
32445;SDS011;18899;50.748;7.102;2022-07-17T03:34:27;9.75;;;2.55;;
32445;SDS011;18899;50.748;7.102;2022-07-17T03:36:52;7.32;;;2.03;;
32445;SDS011;18899;50.748;7.102;2022-07-17T03:39:18;10.85;;;2.40;;
32445;SDS011;18899;50.748;7.102;2022-07-17T03:41:43;7.55;;;3.05;;
32445;SDS011;18899;50.748;7.102;2022-07-17T03:44:09;10.23;;;2.42;;
32445;SDS011;18899;50.748;7.102;2022-07-17T03:46:35;7.40;;;2.25;;
32445;SDS011;18899;50.748;7.102;2022-07-17T03:49:00;8.18;;;2.20;;
32445;SDS011;18899;50.748;7.102;2022-07-17T03:51:26;6.82;;;2.28;;
32445;SDS011;18899;50.748;7.102;2022-07-17T03:53:52;8.15;;;2.45;;
32445;SDS011;18899;50.748;7.102;2022-07-17T03:56:18;4.28;;;2.25;;
32445;SDS011;18899;50.748;7.102;2022-07-17T03:58:43;11.23;;;1.92;;
32445;SDS011;18899;50.748;7.102;2022-07-17T04:01:09;9.52;;;2.30;;
32445;SDS011;18899;50.748;7.102;2022-07-17T04:03:34;5.38;;;2.33;;
32445;SDS011;18899;50.748;7.102;2022-07-17T04:06:00;6.45;;;2.65;;
32445;SDS011;18899;50.748;7.102;2022-07-17T04:08:26;4.28;;;2.38;;
32445;SDS011;18899;50.748;7.102;2022-07-17T04:10:52;5.25;;;2.00;;
32445;SDS011;18899;50.748;7.102;2022-07-17T04:13:17;7.15;;;2.28;;
32445;SDS011;18899;50.748;7.102;2022-07-17T04:15:43;10.70;;;2.15;;
32445;SDS011;18899;50.748;7.102;2022-07-17T04:18:15;5.15;;;2.13;;
32445;SDS011;18899;50.748;7.102;2022-07-17T04:20:42;7.28;;;2.40;;
32445;SDS011;18899;50.748;7.102;2022-07-17T04:23:08;3.83;;;1.90;;
32445;SDS011;18899;50.748;7.102;2022-07-17T04:25:34;3.33;;;1.73;;
32445;SDS011;18899;50.748;7.102;2022-07-17T04:27:59;6.70;;;2.47;;
32445;SDS011;18899;50.748;7.102;2022-07-17T04:30:25;5.90;;;2.05;;
32445;SDS011;18899;50.748;7.102;2022-07-17T04:32:51;5.40;;;1.98;;
32445;SDS011;18899;50.748;7.102;2022-07-17T04:35:16;8.25;;;2.15;;
32445;SDS011;18899;50.748;7.102;2022-07-17T04:37:42;5.75;;;1.65;;
32445;SDS011;18899;50.748;7.102;2022-07-17T04:40:08;5.68;;;2.20;;
32445;SDS011;18899;50.748;7.102;2022-07-17T04:42:34;6.38;;;1.80;;
32445;SDS011;18899;50.748;7.102;2022-07-17T04:44:59;5.97;;;1.58;;
32445;SDS011;18899;50.748;7.102;2022-07-17T04:47:25;7.72;;;1.63;;
32445;SDS011;18899;50.748;7.102;2022-07-17T04:49:50;4.93;;;1.85;;
32445;SDS011;18899;50.748;7.102;2022-07-17T04:52:16;4.47;;;1.75;;
32445;SDS011;18899;50.748;7.102;2022-07-17T04:54:41;5.65;;;1.80;;
32445;SDS011;18899;50.748;7.102;2022-07-17T04:57:07;7.10;;;1.92;;
32445;SDS011;18899;50.748;7.102;2022-07-17T04:59:32;3.78;;;1.80;;
32445;SDS011;18899;50.748;7.102;2022-07-17T05:01:58;8.63;;;2.40;;
32445;SDS011;18899;50.748;7.102;2022-07-17T05:04:24;8.23;;;2.03;;
32445;SDS011;18899;50.748;7.102;2022-07-17T05:06:49;6.82;;;2.20;;
32445;SDS011;18899;50.748;7.102;2022-07-17T05:09:15;6.03;;;1.90;;
32445;SDS011;18899;50.748;7.102;2022-07-17T05:11:40;6.15;;;1.98;;
32445;SDS011;18899;50.748;7.102;2022-07-17T05:14:06;8.00;;;2.10;;
32445;SDS011;18899;50.748;7.102;2022-07-17T05:16:32;6.40;;;1.92;;
32445;SDS011;18899;50.748;7.102;2022-07-17T05:18:57;4.53;;;1.98;;
32445;SDS011;18899;50.748;7.102;2022-07-17T05:21:23;4.57;;;2.05;;
32445;SDS011;18899;50.748;7.102;2022-07-17T05:23:48;4.53;;;1.73;;
32445;SDS011;18899;50.748;7.102;2022-07-17T05:26:14;4.68;;;1.65;;
32445;SDS011;18899;50.748;7.102;2022-07-17T05:28:39;6.32;;;1.85;;
32445;SDS011;18899;50.748;7.102;2022-07-17T05:31:05;4.68;;;1.20;;
32445;SDS011;18899;50.748;7.102;2022-07-17T05:33:31;5.60;;;1.65;;
32445;SDS011;18899;50.748;7.102;2022-07-17T05:35:57;4.78;;;1.52;;
32445;SDS011;18899;50.748;7.102;2022-07-17T05:38:22;4.75;;;1.40;;
32445;SDS011;18899;50.748;7.102;2022-07-17T05:40:48;7.20;;;1.80;;
32445;SDS011;18899;50.748;7.102;2022-07-17T05:43:14;3.00;;;1.48;;
32445;SDS011;18899;50.748;7.102;2022-07-17T05:45:39;5.10;;;1.30;;
32445;SDS011;18899;50.748;7.102;2022-07-17T05:48:06;3.83;;;1.20;;
32445;SDS011;18899;50.748;7.102;2022-07-17T05:50:32;3.45;;;1.38;;
32445;SDS011;18899;50.748;7.102;2022-07-17T05:52:58;7.03;;;2.17;;
32445;SDS011;18899;50.748;7.102;2022-07-17T05:55:23;2.67;;;1.23;;
32445;SDS011;18899;50.748;7.102;2022-07-17T05:57:49;6.70;;;1.38;;
32445;SDS011;18899;50.748;7.102;2022-07-17T06:00:14;6.82;;;1.52;;
32445;SDS011;18899;50.748;7.102;2022-07-17T06:02:40;2.95;;;1.40;;
32445;SDS011;18899;50.748;7.102;2022-07-17T06:05:05;4.45;;;1.73;;
32445;SDS011;18899;50.748;7.102;2022-07-17T06:07:31;5.20;;;1.52;;
32445;SDS011;18899;50.748;7.102;2022-07-17T06:09:57;7.72;;;1.98;;
32445;SDS011;18899;50.748;7.102;2022-07-17T06:12:22;9.68;;;1.90;;
32445;SDS011;18899;50.748;7.102;2022-07-17T06:14:48;5.35;;;2.33;;
32445;SDS011;18899;50.748;7.102;2022-07-17T06:17:13;5.13;;;2.00;;
32445;SDS011;18899;50.748;7.102;2022-07-17T06:19:39;4.82;;;2.10;;
32445;SDS011;18899;50.748;7.102;2022-07-17T06:22:05;8.25;;;2.05;;
32445;SDS011;18899;50.748;7.102;2022-07-17T06:24:31;4.63;;;1.55;;
32445;SDS011;18899;50.748;7.102;2022-07-17T06:26:56;4.20;;;1.45;;
32445;SDS011;18899;50.748;7.102;2022-07-17T06:29:22;7.72;;;1.85;;
32445;SDS011;18899;50.748;7.102;2022-07-17T06:31:48;3.90;;;1.63;;
32445;SDS011;18899;50.748;7.102;2022-07-17T06:34:13;2.97;;;1.50;;
32445;SDS011;18899;50.748;7.102;2022-07-17T06:36:39;6.50;;;2.28;;
32445;SDS011;18899;50.748;7.102;2022-07-17T06:39:04;6.20;;;1.80;;
32445;SDS011;18899;50.748;7.102;2022-07-17T06:41:30;4.68;;;1.08;;
32445;SDS011;18899;50.748;7.102;2022-07-17T06:43:55;3.15;;;1.13;;
32445;SDS011;18899;50.748;7.102;2022-07-17T06:46:21;5.28;;;1.35;;
32445;SDS011;18899;50.748;7.102;2022-07-17T06:48:46;5.78;;;1.63;;
32445;SDS011;18899;50.748;7.102;2022-07-17T06:51:16;10.00;;;1.55;;
32445;SDS011;18899;50.748;7.102;2022-07-17T06:53:41;4.50;;;1.75;;
32445;SDS011;18899;50.748;7.102;2022-07-17T06:56:07;2.13;;;1.20;;
32445;SDS011;18899;50.748;7.102;2022-07-17T06:58:32;4.45;;;1.25;;
32445;SDS011;18899;50.748;7.102;2022-07-17T07:00:58;5.32;;;1.42;;
32445;SDS011;18899;50.748;7.102;2022-07-17T07:03:24;4.47;;;1.52;;
32445;SDS011;18899;50.748;7.102;2022-07-17T07:05:49;4.05;;;1.30;;
32445;SDS011;18899;50.748;7.102;2022-07-17T07:08:15;2.15;;;1.10;;
32445;SDS011;18899;50.748;7.102;2022-07-17T07:10:41;7.18;;;1.58;;
32445;SDS011;18899;50.748;7.102;2022-07-17T07:13:07;5.00;;;1.30;;
32445;SDS011;18899;50.748;7.102;2022-07-17T07:15:33;4.82;;;1.52;;
32445;SDS011;18899;50.748;7.102;2022-07-17T07:17:59;3.88;;;1.45;;
32445;SDS011;18899;50.748;7.102;2022-07-17T07:20:25;3.42;;;1.40;;
32445;SDS011;18899;50.748;7.102;2022-07-17T07:22:50;7.38;;;1.13;;
32445;SDS011;18899;50.748;7.102;2022-07-17T07:25:16;4.00;;;1.50;;
32445;SDS011;18899;50.748;7.102;2022-07-17T07:27:42;3.85;;;1.10;;
32445;SDS011;18899;50.748;7.102;2022-07-17T07:30:08;2.72;;;1.23;;
32445;SDS011;18899;50.748;7.102;2022-07-17T07:32:34;5.80;;;1.13;;
32445;SDS011;18899;50.748;7.102;2022-07-17T07:35:04;4.63;;;1.38;;
32445;SDS011;18899;50.748;7.102;2022-07-17T07:37:31;4.05;;;1.23;;
32445;SDS011;18899;50.748;7.102;2022-07-17T07:39:57;5.20;;;0.98;;
32445;SDS011;18899;50.748;7.102;2022-07-17T07:42:24;3.00;;;0.85;;
32445;SDS011;18899;50.748;7.102;2022-07-17T07:44:50;3.08;;;1.00;;
32445;SDS011;18899;50.748;7.102;2022-07-17T07:47:15;5.50;;;1.20;;
32445;SDS011;18899;50.748;7.102;2022-07-17T07:49:41;3.83;;;1.25;;
32445;SDS011;18899;50.748;7.102;2022-07-17T07:52:06;2.10;;;1.00;;
32445;SDS011;18899;50.748;7.102;2022-07-17T07:54:32;3.63;;;0.93;;
32445;SDS011;18899;50.748;7.102;2022-07-17T07:56:58;5.43;;;0.98;;
32445;SDS011;18899;50.748;7.102;2022-07-17T07:59:23;2.55;;;0.88;;
32445;SDS011;18899;50.748;7.102;2022-07-17T08:01:49;5.78;;;1.42;;
32445;SDS011;18899;50.748;7.102;2022-07-17T08:04:14;3.33;;;0.98;;
32445;SDS011;18899;50.748;7.102;2022-07-17T08:06:40;4.80;;;0.80;;
32445;SDS011;18899;50.748;7.102;2022-07-17T08:09:06;4.65;;;0.98;;
32445;SDS011;18899;50.748;7.102;2022-07-17T08:11:32;2.30;;;0.80;;
32445;SDS011;18899;50.748;7.102;2022-07-17T08:13:57;9.07;;;1.10;;
32445;SDS011;18899;50.748;7.102;2022-07-17T08:16:24;1.52;;;0.60;;
32445;SDS011;18899;50.748;7.102;2022-07-17T08:18:49;3.17;;;1.00;;
32445;SDS011;18899;50.748;7.102;2022-07-17T08:21:15;6.38;;;0.88;;
32445;SDS011;18899;50.748;7.102;2022-07-17T08:23:41;5.00;;;1.05;;
32445;SDS011;18899;50.748;7.102;2022-07-17T08:26:07;3.63;;;0.90;;
32445;SDS011;18899;50.748;7.102;2022-07-17T08:28:32;2.35;;;0.98;;
32445;SDS011;18899;50.748;7.102;2022-07-17T08:30:58;5.10;;;1.10;;
32445;SDS011;18899;50.748;7.102;2022-07-17T08:33:24;3.90;;;0.80;;
32445;SDS011;18899;50.748;7.102;2022-07-17T08:35:49;1.42;;;0.63;;
32445;SDS011;18899;50.748;7.102;2022-07-17T08:38:15;4.13;;;0.95;;
32445;SDS011;18899;50.748;7.102;2022-07-17T08:40:41;4.07;;;0.88;;
32445;SDS011;18899;50.748;7.102;2022-07-17T08:43:08;4.53;;;0.88;;
32445;SDS011;18899;50.748;7.102;2022-07-17T08:45:35;2.78;;;1.10;;
32445;SDS011;18899;50.748;7.102;2022-07-17T08:48:03;4.32;;;0.90;;
32445;SDS011;18899;50.748;7.102;2022-07-17T08:50:34;2.40;;;1.00;;
32445;SDS011;18899;50.748;7.102;2022-07-17T08:53:01;2.38;;;0.93;;
32445;SDS011;18899;50.748;7.102;2022-07-17T08:55:27;4.07;;;1.08;;
32445;SDS011;18899;50.748;7.102;2022-07-17T08:57:53;3.38;;;0.80;;
32445;SDS011;18899;50.748;7.102;2022-07-17T09:00:20;5.43;;;0.80;;
32445;SDS011;18899;50.748;7.102;2022-07-17T09:03:00;1.25;;;0.60;;
32445;SDS011;18899;50.748;7.102;2022-07-17T09:05:34;1.52;;;0.40;;
32445;SDS011;18899;50.748;7.102;2022-07-17T09:08:01;1.40;;;0.40;;
32445;SDS011;18899;50.748;7.102;2022-07-17T09:10:41;2.45;;;0.70;;
32445;SDS011;18899;50.748;7.102;2022-07-17T09:13:24;8.27;;;0.80;;
32445;SDS011;18899;50.748;7.102;2022-07-17T09:15:52;1.92;;;0.60;;
32445;SDS011;18899;50.748;7.102;2022-07-17T09:18:20;3.35;;;0.98;;
32445;SDS011;18899;50.748;7.102;2022-07-17T09:23:20;4.72;;;0.80;;
32445;SDS011;18899;50.748;7.102;2022-07-17T09:25:48;1.27;;;0.60;;
32445;SDS011;18899;50.748;7.102;2022-07-17T09:28:15;3.05;;;0.90;;
32445;SDS011;18899;50.748;7.102;2022-07-17T09:30:43;13.32;;;0.77;;
32445;SDS011;18899;50.748;7.102;2022-07-17T09:33:15;5.05;;;0.80;;
32445;SDS011;18899;50.748;7.102;2022-07-17T09:38:13;2.78;;;0.70;;
32445;SDS011;18899;50.748;7.102;2022-07-17T09:40:49;2.25;;;0.70;;
32445;SDS011;18899;50.748;7.102;2022-07-17T09:43:58;2.90;;;1.00;;
32445;SDS011;18899;50.748;7.102;2022-07-17T09:46:25;2.63;;;0.88;;
32445;SDS011;18899;50.748;7.102;2022-07-17T09:48:53;1.77;;;0.80;;
32445;SDS011;18899;50.748;7.102;2022-07-17T09:53:56;4.70;;;0.73;;
32445;SDS011;18899;50.748;7.102;2022-07-17T09:56:23;3.33;;;0.68;;
32445;SDS011;18899;50.748;7.102;2022-07-17T09:58:55;5.97;;;1.08;;
32445;SDS011;18899;50.748;7.102;2022-07-17T10:01:24;4.55;;;0.75;;
32445;SDS011;18899;50.748;7.102;2022-07-17T10:03:50;2.42;;;0.93;;
32445;SDS011;18899;50.748;7.102;2022-07-17T10:06:18;3.20;;;1.10;;
32445;SDS011;18899;50.748;7.102;2022-07-17T10:08:45;4.78;;;0.90;;
32445;SDS011;18899;50.748;7.102;2022-07-17T10:11:11;2.00;;;0.70;;
32445;SDS011;18899;50.748;7.102;2022-07-17T10:13:39;4.13;;;0.80;;
32445;SDS011;18899;50.748;7.102;2022-07-17T10:16:08;1.77;;;0.70;;
32445;SDS011;18899;50.748;7.102;2022-07-17T10:18:35;7.75;;;0.90;;
32445;SDS011;18899;50.748;7.102;2022-07-17T10:21:10;2.22;;;0.57;;
32445;SDS011;18899;50.748;7.102;2022-07-17T10:23:39;2.65;;;0.60;;
32445;SDS011;18899;50.748;7.102;2022-07-17T10:26:12;1.85;;;0.98;;
32445;SDS011;18899;50.748;7.102;2022-07-17T10:28:42;1.92;;;0.63;;
32445;SDS011;18899;50.748;7.102;2022-07-17T10:31:09;3.33;;;0.75;;
32445;SDS011;18899;50.748;7.102;2022-07-17T10:33:54;2.22;;;0.70;;
32445;SDS011;18899;50.748;7.102;2022-07-17T10:36:31;3.30;;;0.90;;
32445;SDS011;18899;50.748;7.102;2022-07-17T10:39:24;2.75;;;0.80;;
32445;SDS011;18899;50.748;7.102;2022-07-17T10:42:00;2.20;;;0.98;;
32445;SDS011;18899;50.748;7.102;2022-07-17T10:44:27;1.65;;;0.80;;
32445;SDS011;18899;50.748;7.102;2022-07-17T10:46:54;1.75;;;0.70;;
32445;SDS011;18899;50.748;7.102;2022-07-17T10:49:21;3.00;;;0.90;;
32445;SDS011;18899;50.748;7.102;2022-07-17T10:51:47;2.88;;;0.75;;
32445;SDS011;18899;50.748;7.102;2022-07-17T10:54:13;3.15;;;0.65;;
32445;SDS011;18899;50.748;7.102;2022-07-17T10:56:39;2.67;;;0.98;;
32445;SDS011;18899;50.748;7.102;2022-07-17T10:59:05;3.15;;;0.93;;
32445;SDS011;18899;50.748;7.102;2022-07-17T11:01:32;3.25;;;0.90;;
32445;SDS011;18899;50.748;7.102;2022-07-17T11:03:59;4.03;;;1.05;;
32445;SDS011;18899;50.748;7.102;2022-07-17T11:06:30;3.53;;;0.68;;
32445;SDS011;18899;50.748;7.102;2022-07-17T11:09:01;6.03;;;1.05;;
32445;SDS011;18899;50.748;7.102;2022-07-17T11:11:40;2.40;;;0.85;;
32445;SDS011;18899;50.748;7.102;2022-07-17T11:14:06;3.13;;;0.88;;
32445;SDS011;18899;50.748;7.102;2022-07-17T11:16:33;3.40;;;1.00;;
32445;SDS011;18899;50.748;7.102;2022-07-17T11:18:59;1.15;;;0.47;;
32445;SDS011;18899;50.748;7.102;2022-07-17T11:21:25;3.38;;;1.02;;
32445;SDS011;18899;50.748;7.102;2022-07-17T11:23:53;3.50;;;0.90;;
32445;SDS011;18899;50.748;7.102;2022-07-17T11:26:22;2.45;;;0.70;;
32445;SDS011;18899;50.748;7.102;2022-07-17T11:28:49;4.68;;;1.17;;
32445;SDS011;18899;50.748;7.102;2022-07-17T11:31:16;4.28;;;0.60;;
32445;SDS011;18899;50.748;7.102;2022-07-17T11:33:46;4.07;;;0.82;;
32445;SDS011;18899;50.748;7.102;2022-07-17T11:38:50;2.35;;;0.70;;
32445;SDS011;18899;50.748;7.102;2022-07-17T11:41:17;2.20;;;0.60;;
32445;SDS011;18899;50.748;7.102;2022-07-17T11:43:43;2.08;;;0.75;;
32445;SDS011;18899;50.748;7.102;2022-07-17T11:46:09;2.28;;;0.65;;
32445;SDS011;18899;50.748;7.102;2022-07-17T11:48:35;2.60;;;0.77;;
32445;SDS011;18899;50.748;7.102;2022-07-17T11:51:01;3.10;;;0.60;;
32445;SDS011;18899;50.748;7.102;2022-07-17T11:53:33;3.25;;;0.93;;
32445;SDS011;18899;50.748;7.102;2022-07-17T11:56:00;1.65;;;0.63;;
32445;SDS011;18899;50.748;7.102;2022-07-17T11:58:26;3.08;;;1.10;;
32445;SDS011;18899;50.748;7.102;2022-07-17T12:01:02;1.60;;;0.73;;
32445;SDS011;18899;50.748;7.102;2022-07-17T12:03:28;3.70;;;0.68;;
32445;SDS011;18899;50.748;7.102;2022-07-17T12:05:54;2.72;;;0.80;;
32445;SDS011;18899;50.748;7.102;2022-07-17T12:08:20;7.80;;;1.15;;
32445;SDS011;18899;50.748;7.102;2022-07-17T12:10:46;3.22;;;0.77;;
32445;SDS011;18899;50.748;7.102;2022-07-17T12:13:14;5.43;;;0.95;;
32445;SDS011;18899;50.748;7.102;2022-07-17T12:15:41;2.13;;;0.73;;
32445;SDS011;18899;50.748;7.102;2022-07-17T12:18:28;1.65;;;0.70;;
32445;SDS011;18899;50.748;7.102;2022-07-17T12:20:58;1.48;;;0.70;;
32445;SDS011;18899;50.748;7.102;2022-07-17T12:23:29;3.65;;;0.88;;
32445;SDS011;18899;50.748;7.102;2022-07-17T12:26:03;4.43;;;0.80;;
32445;SDS011;18899;50.748;7.102;2022-07-17T12:28:32;3.42;;;0.98;;
32445;SDS011;18899;50.748;7.102;2022-07-17T12:30:59;3.95;;;0.88;;
32445;SDS011;18899;50.748;7.102;2022-07-17T12:33:24;2.88;;;0.80;;
32445;SDS011;18899;50.748;7.102;2022-07-17T12:35:50;4.35;;;0.70;;
32445;SDS011;18899;50.748;7.102;2022-07-17T12:38:15;5.35;;;0.90;;
32445;SDS011;18899;50.748;7.102;2022-07-17T12:40:41;1.83;;;0.85;;
32445;SDS011;18899;50.748;7.102;2022-07-17T12:43:07;2.88;;;0.77;;
32445;SDS011;18899;50.748;7.102;2022-07-17T12:45:33;3.53;;;0.73;;
32445;SDS011;18899;50.748;7.102;2022-07-17T12:47:59;3.45;;;0.80;;
32445;SDS011;18899;50.748;7.102;2022-07-17T12:50:25;4.10;;;0.60;;
32445;SDS011;18899;50.748;7.102;2022-07-17T12:52:51;4.55;;;0.65;;
32445;SDS011;18899;50.748;7.102;2022-07-17T12:55:16;2.40;;;0.68;;
32445;SDS011;18899;50.748;7.102;2022-07-17T12:57:42;3.50;;;0.70;;
32445;SDS011;18899;50.748;7.102;2022-07-17T13:00:08;2.20;;;0.95;;
32445;SDS011;18899;50.748;7.102;2022-07-17T13:02:34;2.35;;;0.85;;
32445;SDS011;18899;50.748;7.102;2022-07-17T13:05:00;2.65;;;0.77;;
32445;SDS011;18899;50.748;7.102;2022-07-17T13:07:26;3.42;;;0.98;;
32445;SDS011;18899;50.748;7.102;2022-07-17T13:09:52;4.10;;;0.80;;
32445;SDS011;18899;50.748;7.102;2022-07-17T13:12:17;2.70;;;0.85;;
32445;SDS011;18899;50.748;7.102;2022-07-17T13:14:43;1.92;;;0.90;;
32445;SDS011;18899;50.748;7.102;2022-07-17T13:17:08;6.10;;;1.00;;
32445;SDS011;18899;50.748;7.102;2022-07-17T13:19:34;4.15;;;1.13;;
32445;SDS011;18899;50.748;7.102;2022-07-17T13:22:00;1.98;;;0.80;;
32445;SDS011;18899;50.748;7.102;2022-07-17T13:24:28;2.65;;;0.90;;
32445;SDS011;18899;50.748;7.102;2022-07-17T13:26:54;3.53;;;0.80;;
32445;SDS011;18899;50.748;7.102;2022-07-17T13:29:20;2.15;;;0.80;;
32445;SDS011;18899;50.748;7.102;2022-07-17T13:31:45;4.75;;;1.10;;
32445;SDS011;18899;50.748;7.102;2022-07-17T13:34:11;2.38;;;0.80;;
32445;SDS011;18899;50.748;7.102;2022-07-17T13:36:37;2.55;;;0.90;;
32445;SDS011;18899;50.748;7.102;2022-07-17T13:39:02;4.00;;;0.80;;
32445;SDS011;18899;50.748;7.102;2022-07-17T13:41:28;3.88;;;1.00;;
32445;SDS011;18899;50.748;7.102;2022-07-17T13:43:55;11.95;;;1.10;;
32445;SDS011;18899;50.748;7.102;2022-07-17T13:46:20;1.80;;;0.93;;
32445;SDS011;18899;50.748;7.102;2022-07-17T13:48:46;8.38;;;1.30;;
32445;SDS011;18899;50.748;7.102;2022-07-17T13:51:12;3.95;;;0.88;;
32445;SDS011;18899;50.748;7.102;2022-07-17T13:53:38;0.90;;;0.52;;
32445;SDS011;18899;50.748;7.102;2022-07-17T13:56:04;2.20;;;0.90;;
32445;SDS011;18899;50.748;7.102;2022-07-17T13:58:30;1.85;;;0.80;;
32445;SDS011;18899;50.748;7.102;2022-07-17T14:00:57;4.43;;;0.90;;
32445;SDS011;18899;50.748;7.102;2022-07-17T14:03:23;2.75;;;1.02;;
32445;SDS011;18899;50.748;7.102;2022-07-17T14:05:49;6.00;;;0.85;;
32445;SDS011;18899;50.748;7.102;2022-07-17T14:08:14;1.50;;;0.50;;
32445;SDS011;18899;50.748;7.102;2022-07-17T14:10:40;4.80;;;0.85;;
32445;SDS011;18899;50.748;7.102;2022-07-17T14:13:06;2.97;;;0.82;;
32445;SDS011;18899;50.748;7.102;2022-07-17T14:15:32;3.70;;;1.00;;
32445;SDS011;18899;50.748;7.102;2022-07-17T14:17:58;2.78;;;1.05;;
32445;SDS011;18899;50.748;7.102;2022-07-17T14:20:23;2.80;;;0.90;;
32445;SDS011;18899;50.748;7.102;2022-07-17T14:22:49;3.65;;;0.80;;
32445;SDS011;18899;50.748;7.102;2022-07-17T14:25:14;3.83;;;0.82;;
32445;SDS011;18899;50.748;7.102;2022-07-17T14:27:40;3.05;;;0.70;;
32445;SDS011;18899;50.748;7.102;2022-07-17T14:30:06;2.88;;;0.90;;
32445;SDS011;18899;50.748;7.102;2022-07-17T14:32:32;1.83;;;0.70;;
32445;SDS011;18899;50.748;7.102;2022-07-17T14:34:57;5.05;;;1.00;;
32445;SDS011;18899;50.748;7.102;2022-07-17T14:37:23;2.38;;;0.90;;
32445;SDS011;18899;50.748;7.102;2022-07-17T14:39:49;2.08;;;1.02;;
32445;SDS011;18899;50.748;7.102;2022-07-17T14:42:14;4.13;;;0.80;;
32445;SDS011;18899;50.748;7.102;2022-07-17T14:44:40;4.07;;;1.00;;
32445;SDS011;18899;50.748;7.102;2022-07-17T14:47:06;7.30;;;1.33;;
32445;SDS011;18899;50.748;7.102;2022-07-17T14:49:32;3.50;;;1.20;;
32445;SDS011;18899;50.748;7.102;2022-07-17T14:51:58;5.72;;;1.23;;
32445;SDS011;18899;50.748;7.102;2022-07-17T14:54:23;2.78;;;1.13;;